Weather at Harry Mwanga Nkumbula International Airport

Public forecast

Using degrees Celsius for public forecast. Weather courtesy of forecast.io.

Closest aviation weather report (METAR) to Harry Mwanga Nkumbula International Airport

Report is more than 2 hours old.

Closest report is Victoria Falls International Airport, 16.5 nm (30.5 km) S.

2024/05/25 09:00 (retrieved 3 hours ago)

FVFA 250900Z 11014KT CAVOK 25/07 Q1024 NOSIG

Closest aviation forecast (TAF) to Harry Mwanga Nkumbula International Airport

Closest forecast is Chimoio Airport, 440.4 nm (815.6 km) ESE.

2024/05/25 12:00 (retrieved 20 minutes ago)

TAF FQCH 251000Z 2512/2612 15008KT 9999 SCT020 TX23/2513Z TN16/2602Z BECMG 2600/2602 VRB01KT BECMG 2606/2608 24006KT